Taconic Lake, New York
Current Conditions -  °F | °C
As of 2:29 AM on Thursday 18 Dec 2014 (Local Time) from KAQW Reporting Station
Light Snow Light Snow  
Wind Chill: 24°   Ceiling: 2000
Heat Index: 34°   Visibility: 3mi
Dew Point: 29°   Wind: 15mph
Humidity: 82%   Direction: 280°W
Pressure: 29.8"   Gusts: 23mph
Location:  42.7192°N, 73.3641°W
Report Text: KAQW 180729Z AUTO 28013G20KT 3SM -SN BKN020 OVC028 01/M02 A2980 RMK AO2 SNB0658 P0000 T00111017
Loading
Personal Weather Stations






























Interactive Weather Map New forecast layout! Learn more

10-Day Weather Forecast

Advertisements
Track Severe Weather on mobile